Terminal Aerodrome Forecast
Issued by NWS Memphis, TN

Home | Current Version | Previous Version | Text Only | Print | Product List | Glossary On
Versions: 1 2 3 4 5 6 7 8 9 10 11 12 13 14
012
FTUS44 KMEG 262142 AAA
TAFMKL
TAF AMD
KMKL 262142Z 2622/2718 19008KT P6SM VCTS SCT040CB BKN250
      TEMPO 2622/2624 1SM +TSRA BKN025CB OVC040
     FM270300 17005KT P6SM VCTS SCT040CB BKN250
     FM271300 19007KT P6SM VCTS SCT030CB BKN050=

USA.gov is the U.S. government's official web portal to all federal, state and local government web resources and services.